createdAt,value
2022-09-15T02:37:28.967Z,9.57
2022-09-15T02:40:00.203Z,10.27
2022-09-15T02:42:28.970Z,9.95
2022-09-15T02:44:55.975Z,9.68
2022-09-15T02:47:25.656Z,9.07
2022-09-15T02:49:52.214Z,9.03
2022-09-15T02:52:20.347Z,8.70
2022-09-15T02:54:50.608Z,9.18
2022-09-15T02:57:17.847Z,8.70
2022-09-15T02:59:45.211Z,8.48
2022-09-15T03:02:12.449Z,8.23
2022-09-15T03:04:41.863Z,8.02
2022-09-15T03:07:09.516Z,8.45
2022-09-15T03:09:36.706Z,8.57
2022-09-15T03:12:09.377Z,7.65
2022-09-15T03:14:35.915Z,8.30
2022-09-15T03:17:02.717Z,7.90
2022-09-15T03:19:29.280Z,8.52
2022-09-15T03:21:55.927Z,8.05
2022-09-15T03:24:22.692Z,7.93
2022-09-15T03:26:51.138Z,7.97
2022-09-15T03:29:20.906Z,8.02
2022-09-15T03:31:48.541Z,7.97
2022-09-15T03:34:20.076Z,8.40
2022-09-15T03:36:46.657Z,8.45
2022-09-15T03:39:13.620Z,8.27
2022-09-15T03:41:40.563Z,8.23
2022-09-15T03:44:07.750Z,8.10
2022-09-15T03:46:38.603Z,8.10
2022-09-15T03:49:05.565Z,8.65
2022-09-15T03:51:36.060Z,8.43
2022-09-15T03:54:06.324Z,8.85
2022-09-15T03:56:34.744Z,8.27
2022-09-15T03:59:02.509Z,8.60
2022-09-15T04:01:31.038Z,8.27
2022-09-15T04:03:59.235Z,8.67
2022-09-15T04:06:26.579Z,8.55
2022-09-15T04:08:54.660Z,8.80
2022-09-15T04:11:25.182Z,8.57
2022-09-15T04:13:53.581Z,8.43
2022-09-15T04:16:22.752Z,8.37
2022-09-15T04:18:49.743Z,7.80
2022-09-15T04:21:21.779Z,7.72
2022-09-15T04:23:48.734Z,8.35
2022-09-15T04:26:21.459Z,8.05
2022-09-15T04:28:48.351Z,9.03
2022-09-15T04:31:16.800Z,8.18
2022-09-15T04:33:45.096Z,8.05
2022-09-15T04:36:13.614Z,8.27
2022-09-15T04:38:42.073Z,8.43
2022-09-15T04:41:18.910Z,7.87
2022-09-15T04:43:45.853Z,8.43
2022-09-15T04:46:12.993Z,8.15
2022-09-15T04:48:40.078Z,8.05
2022-09-15T04:51:08.890Z,8.85
2022-09-15T04:53:36.873Z,8.20
2022-09-15T04:56:07.073Z,8.10
2022-09-15T04:58:37.311Z,8.75
2022-09-15T05:01:08.227Z,8.05
2022-09-15T05:03:47.910Z,8.35
2022-09-15T05:06:17.610Z,8.03
2022-09-15T05:08:48.041Z,8.13
2022-09-15T05:11:16.700Z,8.63
2022-09-15T05:13:43.751Z,8.48
2022-09-15T05:16:12.560Z,8.95
2022-09-15T05:18:40.254Z,8.43
2022-09-15T05:21:08.805Z,8.88
2022-09-15T05:23:36.465Z,8.68
2022-09-15T05:26:05.555Z,9.00
2022-09-15T05:28:35.955Z,8.43
2022-09-15T05:31:07.115Z,9.67
2022-09-15T05:33:34.497Z,9.35
2022-09-15T05:36:01.760Z,8.45
2022-09-15T05:38:30.729Z,8.13
2022-09-15T05:41:02.436Z,8.63
2022-09-15T05:43:30.935Z,8.17
2022-09-15T05:46:01.527Z,8.02
2022-09-15T05:48:28.498Z,8.52
2022-09-15T05:50:58.565Z,8.68
2022-09-15T05:53:26.409Z,8.07
2022-09-15T05:55:54.907Z,8.80
2022-09-15T05:58:21.701Z,7.78
2022-09-15T06:00:48.248Z,8.10
2022-09-15T06:03:17.086Z,8.20
2022-09-15T06:05:43.646Z,8.30
2022-09-15T06:08:11.038Z,8.00
2022-09-15T06:10:41.006Z,8.45
2022-09-15T06:13:08.034Z,8.13
2022-09-15T06:15:34.617Z,8.82
2022-09-15T06:18:04.443Z,8.95
2022-09-15T06:20:32.934Z,8.70
2022-09-15T06:22:59.546Z,8.68
2022-09-15T06:25:26.109Z,8.52
2022-09-15T06:27:52.747Z,8.43
2022-09-15T06:30:19.462Z,8.30
2022-09-15T06:32:48.557Z,8.90
2022-09-15T06:35:15.424Z,8.80
2022-09-15T06:37:43.335Z,8.77
2022-09-15T06:40:11.153Z,8.93
2022-09-15T06:42:38.079Z,7.95
2022-09-15T06:45:05.207Z,9.07
2022-09-15T06:47:31.767Z,8.85
2022-09-15T06:49:58.460Z,9.20
2022-09-15T06:52:25.021Z,9.55
2022-09-15T06:54:54.040Z,8.95
2022-09-15T06:57:20.878Z,9.90
2022-09-15T06:59:47.525Z,9.25
2022-09-15T07:02:14.141Z,9.65
2022-09-15T07:04:40.858Z,9.88
2022-09-15T07:07:07.585Z,10.02
2022-09-15T07:09:34.214Z,10.33
2022-09-15T07:12:02.633Z,10.38
2022-09-15T07:14:29.561Z,9.85
2022-09-15T07:16:56.453Z,10.00
2022-09-15T07:19:23.068Z,10.32
2022-09-15T07:21:49.568Z,10.63
2022-09-15T07:24:16.652Z,10.70
2022-09-15T07:26:43.484Z,10.43
2022-09-15T07:29:11.363Z,11.10
2022-09-15T07:31:39.011Z,10.15
2022-09-15T07:34:06.598Z,11.40
2022-09-15T07:36:33.332Z,10.90
2022-09-15T07:39:00.102Z,10.93
2022-09-15T07:41:30.230Z,10.70
2022-09-15T07:43:59.042Z,10.60
2022-09-15T07:46:30.474Z,11.27
2022-09-15T07:48:57.226Z,10.40
2022-09-15T07:51:24.834Z,10.80
2022-09-15T07:53:52.439Z,11.45
2022-09-15T07:56:19.520Z,12.35
2022-09-15T07:58:48.341Z,12.10
2022-09-15T08:01:16.963Z,11.88
2022-09-15T08:03:46.644Z,13.20
2022-09-15T08:06:14.829Z,15.18
2022-09-15T08:08:42.396Z,15.48
2022-09-15T08:11:13.070Z,14.30
2022-09-15T08:13:42.060Z,13.35
2022-09-15T08:16:19.509Z,13.88
2022-09-15T08:18:48.226Z,13.38
2022-09-15T08:21:18.044Z,13.18
2022-09-15T08:23:44.738Z,13.53
2022-09-15T08:26:14.356Z,12.25
2022-09-15T08:28:42.250Z,13.73
2022-09-15T08:31:11.134Z,12.50
2022-09-15T08:33:43.197Z,12.27
2022-09-15T08:36:14.262Z,12.80
2022-09-15T08:38:42.631Z,12.40
2022-09-15T08:41:14.704Z,12.38
2022-09-15T08:43:46.403Z,12.45
2022-09-15T08:46:17.759Z,12.60
2022-09-15T08:48:49.963Z,12.37
2022-09-15T08:51:23.446Z,11.30
2022-09-15T08:53:55.920Z,10.48
2022-09-15T08:56:24.580Z,9.02
2022-09-15T08:58:51.228Z,9.20
2022-09-15T09:01:31.941Z,9.40
2022-09-15T09:04:22.378Z,6.72
2022-09-15T09:07:03.558Z,7.07
2022-09-15T09:09:39.439Z,7.38
2022-09-15T09:12:31.641Z,6.47
2022-09-15T09:15:11.575Z,7.37
2022-09-15T09:17:59.218Z,7.07
2022-09-15T09:20:42.312Z,6.82
2022-09-15T09:23:14.986Z,6.00
2022-09-15T09:25:42.443Z,6.43
2022-09-15T09:28:24.050Z,5.90
2022-09-15T09:30:50.970Z,5.78
2022-09-15T09:33:29.928Z,6.57
2022-09-15T09:36:00.464Z,6.18
2022-09-15T09:38:31.458Z,7.72
2022-09-15T09:41:02.129Z,5.23
2022-09-15T09:43:30.716Z,4.93
2022-09-15T09:45:57.561Z,5.25
2022-09-15T09:48:27.074Z,4.97
2022-09-15T09:50:55.505Z,4.47
2022-09-15T09:53:29.494Z,4.40
2022-09-15T09:56:15.909Z,3.83
2022-09-15T09:58:43.157Z,3.30
2022-09-15T10:01:11.693Z,2.70
2022-09-15T10:03:38.548Z,2.80
2022-09-15T10:06:07.427Z,2.80
2022-09-15T10:08:37.172Z,2.80
2022-09-15T10:11:05.860Z,3.28
2022-09-15T10:13:36.094Z,3.83
2022-09-15T10:16:06.536Z,3.60
2022-09-15T10:18:36.132Z,3.77
2022-09-15T10:21:05.706Z,3.17
2022-09-15T10:23:35.927Z,3.03
2022-09-15T10:26:22.513Z,3.13
2022-09-15T10:29:12.658Z,3.13
2022-09-15T10:31:40.508Z,2.90
2022-09-15T10:34:24.950Z,2.70
2022-09-15T10:36:53.902Z,2.70
2022-09-15T10:39:27.220Z,2.75
2022-09-15T10:42:03.846Z,2.05
2022-09-15T10:44:36.878Z,2.20
2022-09-15T10:47:14.352Z,1.45
2022-09-15T10:49:54.179Z,1.73
2022-09-15T10:52:31.798Z,1.60
2022-09-15T10:55:15.838Z,1.65
2022-09-15T10:57:56.996Z,1.60
2022-09-15T11:00:28.425Z,1.40
2022-09-15T11:03:12.861Z,1.30
2022-09-15T11:05:53.048Z,1.42
2022-09-15T11:08:42.357Z,1.30
2022-09-15T11:11:18.848Z,1.40
2022-09-15T11:14:00.026Z,1.10
2022-09-15T11:16:34.716Z,1.15
2022-09-15T11:19:13.032Z,1.00
2022-09-15T11:21:46.071Z,1.23
2022-09-15T11:24:34.995Z,1.07
2022-09-15T11:27:08.077Z,1.08
2022-09-15T11:29:52.524Z,1.30
2022-09-15T11:32:24.521Z,1.08
2022-09-15T11:34:55.797Z,1.27
2022-09-15T11:37:26.436Z,0.87
2022-09-15T11:39:58.813Z,1.10
2022-09-15T11:42:35.563Z,1.00
2022-09-15T11:45:03.154Z,1.20
2022-09-15T11:47:36.308Z,0.88
2022-09-15T11:50:14.348Z,1.27
2022-09-15T11:52:49.701Z,1.00
2022-09-15T11:55:25.166Z,1.10
2022-09-15T11:58:00.763Z,1.00
2022-09-15T12:00:27.600Z,1.13
2022-09-15T12:03:06.211Z,1.40
2022-09-15T12:05:39.308Z,1.20
2022-09-15T12:08:15.916Z,1.30
2022-09-15T12:10:46.553Z,1.67
2022-09-15T12:13:18.073Z,0.95
2022-09-15T12:15:46.313Z,2.07
2022-09-15T12:18:37.741Z,4.07
2022-09-15T12:21:15.331Z,1.80
2022-09-15T12:23:47.804Z,2.80
2022-09-15T12:26:17.897Z,1.92
2022-09-15T12:28:57.642Z,1.63
2022-09-15T12:31:30.485Z,1.27
2022-09-15T12:34:00.116Z,1.05
2022-09-15T12:36:48.120Z,1.50
2022-09-15T12:39:28.176Z,1.10
2022-09-15T12:41:57.488Z,0.90
2022-09-15T12:44:32.216Z,1.58
2022-09-15T12:47:00.784Z,1.38
2022-09-15T12:49:32.713Z,1.38
2022-09-15T12:52:03.269Z,1.42
2022-09-15T12:54:32.303Z,1.20
2022-09-15T12:57:00.282Z,1.33
2022-09-15T12:59:28.707Z,1.52
2022-09-15T13:01:56.322Z,1.58
2022-09-15T13:04:56.601Z,1.70
2022-09-15T13:07:35.678Z,1.37
2022-09-15T13:10:28.533Z,1.63
2022-09-15T13:13:10.047Z,1.63
2022-09-15T13:15:47.228Z,1.60
2022-09-15T13:18:18.450Z,1.50
2022-09-15T13:20:53.349Z,1.33
2022-09-15T13:23:22.842Z,1.40
2022-09-15T13:25:52.490Z,1.42
2022-09-15T13:28:20.444Z,1.80
2022-09-15T13:31:04.533Z,1.45
2022-09-15T13:39:58.494Z,1.40
2022-09-15T13:42:39.852Z,1.98
2022-09-15T13:45:35.890Z,1.35
2022-09-15T13:48:21.945Z,1.50
2022-09-15T13:50:56.313Z,1.23
2022-09-15T13:53:50.170Z,1.10
2022-09-15T13:56:24.328Z,1.17
2022-09-15T13:59:03.415Z,1.20
2022-09-15T14:01:39.575Z,1.13
2022-09-15T14:04:15.781Z,1.20
2022-09-15T14:06:44.769Z,1.30
2022-09-15T14:09:15.184Z,1.38
2022-09-15T14:11:46.600Z,1.38
2022-09-15T14:14:39.832Z,1.20
2022-09-15T14:17:21.816Z,1.17
2022-09-15T14:19:51.372Z,1.13
2022-09-15T14:22:27.429Z,1.10
2022-09-15T14:24:55.678Z,1.13
2022-09-15T14:27:26.417Z,0.87
2022-09-15T14:29:54.717Z,1.17
2022-09-15T14:32:22.228Z,1.17
2022-09-15T14:34:55.998Z,1.58
2022-09-15T14:37:26.785Z,0.90
2022-09-15T14:39:56.706Z,1.20
2022-09-15T14:42:25.710Z,0.90
2022-09-15T14:47:44.304Z,1.02
2022-09-15T14:50:16.293Z,0.93
2022-09-15T14:52:46.300Z,1.00
2022-09-15T14:55:16.819Z,1.15
2022-09-15T14:57:52.893Z,0.75
2022-09-15T15:00:25.593Z,0.77
2022-09-15T15:03:06.187Z,0.80
2022-09-15T15:05:43.978Z,0.90
2022-09-15T15:08:19.913Z,0.88
2022-09-15T15:10:46.651Z,1.10
2022-09-15T15:13:16.308Z,0.90
2022-09-15T15:15:44.006Z,1.10
2022-09-15T15:18:49.137Z,1.00
2022-09-15T15:21:41.939Z,0.98
2022-09-15T15:24:16.942Z,0.80
2022-09-15T15:26:45.290Z,0.93
2022-09-15T15:29:40.489Z,0.90
2022-09-15T15:32:12.198Z,0.90
2022-09-15T15:34:39.350Z,0.88
2022-09-15T15:37:22.341Z,0.82
2022-09-15T15:39:52.516Z,1.00
2022-09-15T15:42:20.254Z,0.70
2022-09-15T15:45:01.565Z,1.00
2022-09-15T15:47:30.884Z,1.10
2022-09-15T15:50:16.564Z,1.05
2022-09-15T15:52:44.548Z,0.80
2022-09-15T15:55:14.497Z,1.00
2022-09-15T15:57:41.255Z,0.83
2022-09-15T16:00:21.087Z,0.80
2022-09-15T16:02:49.315Z,0.80
2022-09-15T16:05:15.928Z,0.95
2022-09-15T16:07:46.993Z,0.70
2022-09-15T16:10:16.310Z,0.70
2022-09-15T16:12:42.913Z,0.73
2022-09-15T16:15:12.317Z,0.80
2022-09-15T16:17:43.065Z,0.70
2022-09-15T16:20:14.639Z,0.90
2022-09-15T16:22:41.622Z,1.10
2022-09-15T16:25:16.526Z,0.80
2022-09-15T16:27:43.736Z,0.90
2022-09-15T16:30:11.018Z,0.85
2022-09-15T16:32:38.139Z,0.80
2022-09-15T16:35:16.180Z,0.80
2022-09-15T16:37:42.801Z,1.20
2022-09-15T16:40:12.101Z,1.40
2022-09-15T16:43:02.990Z,1.05
2022-09-15T16:45:36.472Z,1.05
2022-09-15T16:48:08.166Z,0.90
2022-09-15T16:50:42.650Z,1.00
2022-09-15T16:53:13.722Z,1.00
2022-09-15T16:55:57.185Z,1.05
2022-09-15T16:58:33.512Z,0.90
2022-09-15T17:01:06.126Z,1.10
2022-09-15T17:03:37.546Z,0.70
2022-09-15T17:06:05.634Z,1.00
2022-09-15T17:08:33.360Z,0.80
2022-09-15T17:13:55.332Z,0.77
2022-09-15T17:16:22.119Z,0.77
2022-09-15T17:18:48.952Z,0.80
2022-09-15T17:21:17.561Z,1.08
2022-09-15T17:23:45.790Z,1.10
2022-09-15T17:26:17.411Z,0.80
2022-09-15T17:28:44.345Z,0.93
2022-09-15T17:31:15.822Z,0.70
2022-09-15T17:33:43.768Z,0.73
2022-09-15T17:36:10.704Z,0.70
2022-09-15T17:38:38.093Z,0.90
2022-09-15T17:41:05.312Z,0.70
2022-09-15T17:43:32.101Z,0.77
2022-09-15T17:46:01.443Z,0.70
2022-09-15T17:48:43.946Z,0.55
2022-09-15T17:51:16.647Z,1.20
2022-09-15T17:53:47.165Z,0.88
2022-09-15T17:56:16.598Z,0.60
2022-09-15T17:58:45.360Z,1.75
2022-09-15T18:01:19.069Z,2.80
2022-09-15T18:03:47.369Z,1.40
2022-09-15T18:06:16.140Z,1.25
2022-09-15T18:08:43.080Z,2.63
2022-09-15T18:11:14.986Z,1.52
2022-09-15T18:13:41.888Z,2.00
2022-09-15T18:16:16.719Z,1.43
2022-09-15T18:18:47.891Z,1.05
2022-09-15T18:21:23.555Z,1.20
2022-09-15T18:23:52.139Z,0.85
2022-09-15T18:26:26.265Z,0.60
2022-09-15T18:28:53.734Z,1.10
2022-09-15T18:31:23.467Z,0.88
2022-09-15T18:33:52.314Z,2.35
2022-09-15T18:36:22.350Z,1.08
2022-09-15T18:38:52.448Z,0.75
2022-09-15T18:41:19.356Z,1.40
2022-09-15T18:43:46.088Z,1.02
2022-09-15T18:46:13.738Z,0.82
2022-09-15T18:48:40.625Z,0.82
2022-09-15T18:51:13.826Z,1.63
2022-09-15T18:53:49.747Z,2.27
2022-09-15T18:56:19.162Z,3.58
2022-09-15T18:58:45.829Z,7.25
2022-09-15T19:01:12.565Z,3.70
2022-09-15T19:03:44.096Z,2.80
2022-09-15T19:06:13.151Z,2.17
2022-09-15T19:08:39.800Z,1.23
2022-09-15T19:11:07.313Z,1.20
2022-09-15T19:13:33.954Z,0.90
2022-09-15T19:16:02.888Z,0.90
2022-09-15T19:18:29.713Z,1.13
2022-09-15T19:21:04.802Z,1.00
2022-09-15T19:23:33.289Z,1.00
2022-09-15T19:26:02.311Z,0.77
2022-09-15T19:28:31.924Z,0.80
2022-09-15T19:30:58.989Z,0.83
2022-09-15T19:33:25.791Z,0.68
2022-09-15T19:36:04.942Z,0.70
2022-09-15T19:38:44.366Z,1.52
2022-09-15T19:41:13.722Z,0.88
2022-09-15T19:43:42.419Z,0.97
2022-09-15T19:46:13.755Z,0.70
2022-09-15T19:48:42.792Z,0.80
2022-09-15T19:51:16.695Z,1.15
2022-09-15T19:53:45.926Z,0.70
2022-09-15T19:56:39.484Z,0.60
2022-09-15T19:59:12.943Z,1.13
2022-09-15T20:01:40.334Z,0.80
2022-09-15T20:04:10.224Z,0.70
2022-09-15T20:06:37.345Z,0.85
2022-09-15T20:09:09.769Z,0.70
2022-09-15T20:11:38.154Z,0.65
2022-09-15T20:14:09.057Z,0.70
2022-09-15T20:16:39.111Z,1.17
2022-09-15T20:19:11.453Z,0.77
2022-09-15T20:21:51.402Z,0.90
2022-09-15T20:24:25.420Z,0.60
2022-09-15T20:27:12.990Z,0.57
2022-09-15T20:29:48.516Z,0.57
2022-09-15T20:32:30.289Z,0.60
2022-09-15T20:35:06.258Z,0.90
2022-09-15T20:37:37.665Z,0.68
2022-09-15T20:40:07.140Z,0.80
2022-09-15T20:42:41.114Z,0.68
2022-09-15T20:45:10.367Z,0.60
2022-09-15T20:47:50.239Z,0.70
2022-09-15T20:50:18.370Z,0.55
2022-09-15T20:52:45.369Z,0.80
2022-09-15T20:55:14.894Z,0.80
2022-09-15T20:57:53.301Z,0.60
2022-09-15T21:00:57.222Z,0.63
2022-09-15T21:03:23.953Z,0.60
2022-09-15T21:05:59.144Z,0.73
2022-09-15T21:08:28.509Z,0.77
2022-09-15T21:10:56.615Z,0.70
2022-09-15T21:13:23.629Z,0.60
2022-09-15T21:18:43.239Z,0.70
2022-09-15T21:21:26.284Z,0.73
2022-09-15T21:24:01.948Z,0.70
2022-09-15T21:26:34.923Z,0.73
2022-09-15T21:29:11.511Z,0.50
2022-09-15T21:31:48.333Z,0.80
2022-09-15T21:34:19.168Z,0.90
2022-09-15T21:37:00.269Z,0.60
2022-09-15T21:39:38.838Z,0.90
2022-09-15T21:42:14.691Z,0.70
2022-09-15T21:44:48.103Z,0.60
2022-09-15T21:47:16.916Z,0.60
2022-09-15T21:49:43.813Z,0.52
2022-09-15T21:52:12.448Z,0.60
2022-09-15T21:54:39.437Z,0.50
2022-09-15T21:57:07.967Z,1.05
2022-09-15T21:59:39.300Z,0.70
2022-09-15T22:02:06.376Z,0.80
2022-09-15T22:04:36.606Z,0.60
2022-09-15T22:07:09.510Z,0.63
2022-09-15T22:09:36.424Z,0.90
2022-09-15T22:12:03.468Z,0.70
2022-09-15T22:14:32.952Z,0.75
2022-09-15T22:17:01.566Z,0.67
2022-09-15T22:19:37.118Z,0.52
2022-09-15T22:22:04.102Z,0.50
2022-09-15T22:24:37.853Z,0.95
2022-09-15T22:27:20.492Z,0.50
2022-09-15T22:29:59.351Z,0.70
2022-09-15T22:32:29.473Z,1.23
2022-09-15T22:35:00.408Z,1.20
2022-09-15T22:37:42.525Z,0.80
2022-09-15T22:40:26.058Z,0.70
2022-09-15T22:42:57.682Z,0.53
2022-09-15T22:45:41.899Z,0.65
2022-09-15T22:48:14.099Z,0.70
2022-09-15T22:50:49.147Z,0.80
2022-09-15T22:53:17.859Z,0.55
2022-09-15T22:55:46.305Z,1.00
2022-09-15T22:58:17.443Z,0.90
2022-09-15T23:00:52.112Z,0.80
2022-09-15T23:03:21.734Z,1.30
2022-09-15T23:05:58.453Z,0.57
2022-09-15T23:08:29.926Z,0.97
2022-09-15T23:11:07.919Z,0.80
2022-09-15T23:13:35.153Z,0.60
2022-09-15T23:16:05.585Z,0.77
2022-09-15T23:18:49.243Z,0.70
2022-09-15T23:21:21.707Z,0.70
2022-09-15T23:23:51.392Z,0.80
2022-09-15T23:26:40.200Z,0.80
2022-09-15T23:29:07.071Z,0.60
2022-09-15T23:31:35.810Z,0.73
2022-09-15T23:34:05.970Z,0.60
2022-09-15T23:36:34.665Z,0.60
2022-09-15T23:39:07.261Z,0.60
2022-09-15T23:41:48.735Z,0.60
2022-09-15T23:44:26.616Z,0.70
2022-09-15T23:46:58.672Z,0.60
2022-09-15T23:49:47.757Z,0.80
2022-09-15T23:52:14.900Z,0.68
2022-09-15T23:54:46.959Z,0.60
2022-09-15T23:57:15.325Z,0.55
2022-09-15T23:59:44.928Z,0.70
